Time;durP1;ratioP1;P1;durP2;ratioP2;P2;SDS_P1;SDS_P2;PMS_P1;PMS_P2;Temp;Humidity;BMP_temperature;BMP_pressure;BME280_temperature;BME280_humidity;BME280_pressure;Samples;Min_cycle;Max_cycle;Signal;HPM_P1;HPM_P2
2021/10/24 00:00:51;;;;;;;4.30;1.83;;;;;;;3.45;99.19;101709.91;5026213;28;20418;-64
2021/10/24 00:03:36;;;;;;;6.70;1.95;;;;;;;3.51;98.92;101707.84;5024174;28;20056;-64
2021/10/24 00:06:21;;;;;;;4.53;1.60;;;;;;;3.58;99.35;101700.50;5031915;28;20269;-65
2021/10/24 00:09:07;;;;;;;3.25;1.70;;;;;;;3.65;98.15;101709.06;5033547;28;20060;-63
2021/10/24 00:11:53;;;;;;;4.43;1.55;;;;;;;3.66;98.89;101713.44;5032022;28;20052;-63
2021/10/24 00:14:38;;;;;;;3.80;1.70;;;;;;;3.69;98.64;101708.88;5024809;28;20072;-63
2021/10/24 00:17:24;;;;;;;4.38;1.80;;;;;;;3.73;98.30;101712.28;5032069;28;20056;-66
2021/10/24 00:20:09;;;;;;;;;;;;;;;3.73;98.00;101718.44;5031806;28;20065;-66
2021/10/24 00:22:55;;;;;;;4.18;1.52;;;;;;;3.67;98.57;101712.50;5029631;28;19928;-65
2021/10/24 00:25:40;;;;;;;4.88;2.00;;;;;;;3.61;98.14;101705.69;5031264;28;20056;-65
2021/10/24 00:28:26;;;;;;;5.38;1.35;;;;;;;3.62;98.73;101704.75;5028781;28;20184;-65
2021/10/24 00:31:11;;;;;;;12.88;2.55;;;;;;;3.49;98.21;101717.69;5031285;28;20061;-63
2021/10/24 00:33:59;;;;;;;3.88;2.08;;;;;;;3.48;98.99;101712.44;5032012;28;20052;-64
2021/10/24 00:36:45;;;;;;;8.32;2.03;;;;;;;3.56;99.24;101720.09;5029718;28;20103;-65
2021/10/24 00:39:30;;;;;;;3.08;1.90;;;;;;;3.58;99.87;101727.06;5028445;28;20135;-64
2021/10/24 00:42:15;;;;;;;3.95;1.80;;;;;;;3.58;99.19;101721.75;5030111;28;20055;-63
2021/10/24 00:45:00;;;;;;;3.88;1.73;;;;;;;3.52;98.71;101725.50;5031455;28;20060;-67
2021/10/24 00:47:45;;;;;;;3.70;1.50;;;;;;;3.32;98.29;101719.31;5030396;28;20064;-64
2021/10/24 00:50:33;;;;;;;3.58;1.70;;;;;;;3.17;98.61;101720.75;5030525;28;20507;-65
2021/10/24 00:53:18;;;;;;;5.80;1.90;;;;;;;3.00;97.93;101717.91;5025978;28;20060;-63
2021/10/24 00:56:04;;;;;;;3.85;1.58;;;;;;;2.88;98.37;101716.59;5030738;28;20179;-66
2021/10/24 00:58:50;;;;;;;5.15;1.95;;;;;;;2.89;98.71;101716.53;5031218;28;20132;-66
2021/10/24 01:01:35;;;;;;;;;;;;;;;2.70;98.80;101714.66;5028273;28;20072;-64
2021/10/24 01:04:21;;;;;;;5.13;2.17;;;;;;;2.56;99.27;101707.22;5021419;28;19971;-64
2021/10/24 01:07:07;;;;;;;12.82;3.00;;;;;;;2.43;100.00;101711.25;5021870;28;20057;-63
2021/10/24 01:09:53;;;;;;;5.95;2.28;;;;;;;2.43;99.64;101711.25;5029131;28;20069;-66
2021/10/24 01:12:39;;;;;;;5.30;2.50;;;;;;;2.34;99.62;101701.84;5024679;28;20055;-64
2021/10/24 01:15:24;;;;;;;4.17;2.60;;;;;;;2.27;99.93;101709.16;5020115;28;20203;-65
2021/10/24 01:18:11;;;;;;;4.60;2.35;;;;;;;2.22;98.81;101702.28;5028745;28;20064;-64
2021/10/24 01:20:57;;;;;;;3.15;1.63;;;;;;;2.09;98.48;101698.34;5030369;28;20143;-65
2021/10/24 01:23:43;;;;;;;3.97;1.92;;;;;;;2.07;98.92;101698.41;5023647;28;20055;-67
2021/10/24 01:26:29;;;;;;;6.85;2.25;;;;;;;2.06;99.81;101704.63;5025502;28;20146;-63
2021/10/24 01:29:15;;;;;;;4.32;1.73;;;;;;;2.00;99.02;101697.75;5028370;28;20064;-63
2021/10/24 01:32:00;;;;;;;5.17;1.50;;;;;;;1.98;99.50;101699.59;5030457;28;20543;-67
2021/10/24 01:34:47;;;;;;;5.47;2.40;;;;;;;1.88;98.92;101692.91;5028574;28;20302;-65
2021/10/24 01:37:34;;;;;;;;;;;;;;;1.73;99.94;101693.44;5029800;28;20327;-65
2021/10/24 01:40:20;;;;;;;4.72;1.88;;;;;;;1.71;99.57;101689.97;5027712;28;20006;-65
2021/10/24 01:43:04;;;;;;;7.40;2.72;;;;;;;1.61;99.80;101685.91;5029621;28;20057;-66
2021/10/24 01:45:50;;;;;;;7.68;2.33;;;;;;;1.63;99.67;101684.94;5025729;28;20629;-66
2021/10/24 01:48:35;;;;;;;6.33;2.70;;;;;;;1.53;99.71;101680.88;5036332;28;20167;-67
2021/10/24 01:51:20;;;;;;;2.75;1.65;;;;;;;1.45;98.85;101677.63;5028644;28;20060;-66
2021/10/24 01:54:06;;;;;;;3.42;2.08;;;;;;;1.42;99.31;101683.00;5028919;28;20183;-67
2021/10/24 01:56:51;;;;;;;5.90;1.92;;;;;;;1.35;99.08;101682.38;5029844;28;20106;-67
2021/10/24 01:59:36;;;;;;;3.70;2.03;;;;;;;1.33;99.49;101683.34;5027954;28;20192;-65
2021/10/24 02:02:21;;;;;;;5.70;1.95;;;;;;;1.28;99.36;101675.53;5028095;28;20055;-66
2021/10/24 02:05:07;;;;;;;3.38;1.75;;;;;;;1.26;98.72;101677.38;5030230;28;20064;-66
2021/10/24 02:07:52;;;;;;;10.30;2.53;;;;;;;1.19;98.57;101678.50;5020271;28;20056;-66
2021/10/24 02:10:39;;;;;;;5.72;1.70;;;;;;;1.19;99.37;101675.84;5030282;28;20150;-63
2021/10/24 02:13:24;;;;;;;3.05;1.70;;;;;;;1.18;99.16;101679.38;5027252;28;20422;-66
2021/10/24 02:16:09;;;;;;;3.90;2.08;;;;;;;1.24;99.11;101673.91;5029493;28;20164;-67
2021/10/24 02:18:54;;;;;;;4.45;1.92;;;;;;;1.30;99.43;101671.09;5029485;28;20423;-64
2021/10/24 02:21:39;;;;;;;7.50;2.03;;;;;;;1.30;99.49;101673.72;5028211;28;20107;-65
2021/10/24 02:24:24;;;;;;;3.67;1.70;;;;;;;1.24;99.46;101678.34;5023016;28;20407;-65
2021/10/24 02:27:10;;;;;;;2.60;1.63;;;;;;;1.12;98.79;101675.19;5027697;28;20127;-66
2021/10/24 02:29:55;;;;;;;5.15;1.90;;;;;;;0.98;99.20;101674.75;5029995;28;20061;-63
2021/10/24 02:32:42;;;;;;;6.32;2.08;;;;;;;0.94;99.12;101682.81;5022536;28;20048;-64
2021/10/24 02:43:26;;;;;;;6.78;1.83;;;;;;;1.10;99.64;101681.44;5034403;28;20041;-77
2021/10/24 02:46:11;;;;;;;5.18;1.80;;;;;;;1.07;99.07;101678.91;5043341;28;20056;-77
2021/10/24 02:48:57;;;;;;;3.97;1.97;;;;;;;1.00;99.37;101675.56;5035582;28;20092;-77
2021/10/24 02:51:43;;;;;;;7.28;1.73;;;;;;;0.91;99.34;101677.63;5033339;28;20804;-77
2021/10/24 02:54:28;;;;;;;6.20;2.53;;;;;;;0.96;99.21;101681.00;5027514;28;20063;-78
2021/10/24 02:57:13;;;;;;;10.30;2.40;;;;;;;0.91;99.45;101683.78;5025042;28;20198;-77
2021/10/24 02:59:59;;;;;;;4.03;2.22;;;;;;;0.89;99.14;101680.31;5027588;28;20084;-77
2021/10/24 03:02:45;;;;;;;9.02;2.83;;;;;;;0.92;99.72;101666.13;5024934;28;20056;-76
2021/10/24 03:05:30;;;;;;;9.47;2.10;;;;;;;0.97;99.40;101680.97;5030288;28;20059;-77
2021/10/24 03:08:15;;;;;;;6.50;2.08;;;;;;;1.00;99.08;101680.84;5025986;28;20470;-75
2021/10/24 03:11:00;;;;;;;7.88;2.63;;;;;;;0.92;99.39;101682.00;5033179;28;20061;-77
2021/10/24 03:13:45;;;;;;;7.65;3.40;;;;;;;0.81;98.90;101685.84;5024898;28;20123;-78
2021/10/24 03:16:33;;;;;;;5.55;2.00;;;;;;;0.73;98.86;101687.88;5024150;28;20447;-77
2021/10/24 03:19:19;;;;;;;5.28;2.60;;;;;;;0.80;99.50;101686.75;5029203;28;20175;-77
2021/10/24 03:22:05;;;;;;;7.43;2.20;;;;;;;0.72;99.19;101691.44;5027772;28;20053;-78
2021/10/24 03:24:50;;;;;;;4.88;2.25;;;;;;;0.63;98.77;101696.13;5025991;28;20056;-75
2021/10/24 03:27:35;;;;;;;6.25;2.33;;;;;;;0.52;99.08;101699.06;5027377;28;20087;-76
2021/10/24 03:30:20;;;;;;;3.15;2.08;;;;;;;0.41;99.35;101702.03;5032457;28;20060;-76
2021/10/24 03:33:07;;;;;;;5.40;2.15;;;;;;;0.35;99.02;101706.59;5030528;28;20053;-77
2021/10/24 03:35:53;;;;;;;3.78;1.98;;;;;;;0.27;98.77;101702.41;5032194;28;20080;-77
2021/10/24 03:38:38;;;;;;;5.22;2.08;;;;;;;0.24;99.45;101705.16;5024872;28;20494;-75
2021/10/24 03:41:23;;;;;;;7.95;2.30;;;;;;;0.23;99.11;101705.16;5031853;28;20052;-76
2021/10/24 03:44:08;;;;;;;5.18;3.05;;;;;;;0.18;98.97;101709.72;5029103;28;20056;-76
2021/10/24 03:46:53;;;;;;;4.75;2.25;;;;;;;0.17;99.21;101716.78;5024178;28;20569;-78
2021/10/24 03:49:41;;;;;;;3.88;2.05;;;;;;;0.15;98.87;101715.09;5032294;28;20533;-77
2021/10/24 03:52:26;;;;;;;9.07;2.80;;;;;;;0.16;98.79;101722.97;5030427;28;20410;-77
2021/10/24 03:55:12;;;;;;;9.03;3.27;;;;;;;0.21;99.29;101718.41;5028686;28;20056;-79
2021/10/24 03:57:57;;;;;;;5.40;3.00;;;;;;;0.24;99.12;101718.34;5031540;28;20064;-78
2021/10/24 04:00:42;;;;;;;5.90;2.58;;;;;;;0.25;99.09;101719.22;5033452;28;20076;-77
2021/10/24 04:03:28;;;;;;;12.40;3.38;;;;;;;0.26;98.95;101718.31;5030685;28;20044;-77
2021/10/24 04:06:17;;;;;;;12.95;5.15;;;;;;;0.31;98.69;101720.81;5028691;28;20095;-80
2021/10/24 04:11:40;;;;;;;6.57;3.47;;;;;;;0.34;98.83;101720.72;5028048;28;20096;-63
2021/10/24 04:14:25;;;;;;;6.95;3.13;;;;;;;0.34;98.41;101720.72;5030899;28;20119;-64
2021/10/24 04:17:10;;;;;;;6.63;3.53;;;;;;;0.57;98.93;101718.28;5026034;28;20068;-64
2021/10/24 04:19:55;;;;;;;9.13;4.20;;;;;;;0.68;98.73;101716.19;5030769;28;20056;-63
2021/10/24 04:22:42;;;;;;;6.35;3.75;;;;;;;0.51;98.96;101718.47;5025918;28;20052;-62
2021/10/24 04:25:27;;;;;;;7.78;3.40;;;;;;;0.49;99.45;101725.59;5029266;28;20107;-67
2021/10/24 04:28:12;;;;;;;9.52;3.58;;;;;;;0.49;98.91;101715.03;5029901;28;20060;-63
2021/10/24 04:30:57;;;;;;;5.78;2.92;;;;;;;0.46;98.92;101709.78;5032399;28;20064;-62
2021/10/24 04:33:42;;;;;;;8.18;3.60;;;;;;;0.39;98.80;101708.25;5031871;28;20061;-64
2021/10/24 04:36:27;;;;;;;6.85;3.15;;;;;;;0.26;98.62;101707.75;5028653;28;20140;-63
2021/10/24 04:39:14;;;;;;;6.85;3.58;;;;;;;0.18;98.68;101697.38;5027596;28;20188;-63
2021/10/24 04:41:59;;;;;;;5.90;3.55;;;;;;;0.14;98.84;101703.69;5025315;28;20546;-64
2021/10/24 04:44:44;;;;;;;8.27;3.65;;;;;;;0.15;99.34;101702.75;5029839;28;20446;-63
2021/10/24 04:47:29;;;;;;;7.72;3.42;;;;;;;0.15;99.31;101694.84;5032415;28;20060;-65
2021/10/24 04:50:14;;;;;;;7.50;3.85;;;;;;;0.15;99.17;101700.13;5030035;28;20092;-63
2021/10/24 04:52:59;;;;;;;9.68;4.45;;;;;;;0.18;99.19;101696.53;5030383;28;20052;-62
2021/10/24 04:55:45;;;;;;;6.80;3.72;;;;;;;0.23;99.47;101694.59;5029963;28;20048;-64
2021/10/24 04:58:31;;;;;;;8.00;3.97;;;;;;;0.21;99.68;101705.22;5030289;28;20107;-63
2021/10/24 05:01:16;;;;;;;6.53;3.83;;;;;;;0.18;99.23;101700.03;5031068;28;20064;-62
2021/10/24 05:04:00;;;;;;;12.65;3.90;;;;;;;0.22;99.59;101704.31;5017330;28;20068;-63
2021/10/24 05:06:46;;;;;;;8.52;3.75;;;;;;;0.14;99.26;101703.69;5029896;28;20179;-64
2021/10/24 05:09:31;;;;;;;6.63;2.80;;;;;;;0.09;99.02;101704.69;5030608;28;20060;-63
2021/10/24 05:12:17;;;;;;;6.57;3.33;;;;;;;0.08;98.98;101702.97;5030083;28;20061;-63
2021/10/24 05:15:03;;;;;;;9.98;4.07;;;;;;;0.10;99.26;101703.78;5030394;28;20307;-63
2021/10/24 05:17:48;;;;;;;5.67;3.47;;;;;;;0.10;99.49;101699.38;5031277;28;20075;-62
2021/10/24 05:20:33;;;;;;;7.10;2.95;;;;;;;0.13;99.37;101699.31;5031449;28;20128;-64
2021/10/24 05:23:18;;;;;;;9.70;4.25;;;;;;;0.18;99.58;101694.75;5027784;28;20422;-62
2021/10/24 05:26:04;;;;;;;9.05;4.10;;;;;;;0.19;99.68;101696.47;5029419;28;20077;-63
2021/10/24 05:28:51;;;;;;;9.05;4.50;;;;;;;0.23;99.50;101700.75;5031429;28;20510;-65
2021/10/24 05:31:35;;;;;;;7.22;3.70;;;;;;;0.17;99.29;101698.31;5027193;28;20056;-64
2021/10/24 05:34:21;;;;;;;8.00;3.78;;;;;;;0.15;99.48;101697.47;5021321;28;20514;-63
2021/10/24 05:37:06;;;;;;;6.60;3.95;;;;;;;0.14;99.28;101695.75;5024560;28;20088;-62
2021/10/24 05:39:52;;;;;;;11.27;4.10;;;;;;;0.16;99.38;101704.50;5023970;28;20052;-64
2021/10/24 05:42:37;;;;;;;9.05;3.95;;;;;;;0.20;99.85;101698.19;5025786;28;20279;-64
2021/10/24 05:45:23;;;;;;;13.07;4.60;;;;;;;0.20;99.48;101698.19;5025498;28;20143;-63
2021/10/24 05:48:08;;;;;;;9.38;3.88;;;;;;;0.15;99.25;101702.75;5025364;28;20127;-63
2021/10/24 05:50:53;;;;;;;9.07;4.53;;;;;;;0.13;99.30;101701.09;5025677;28;20079;-65
2021/10/24 05:53:38;;;;;;;12.55;4.45;;;;;;;0.06;99.17;101707.41;5024402;28;20060;-64
2021/10/24 05:56:23;;;;;;;10.00;4.28;;;;;;;0.03;99.09;101705.75;5030032;28;20187;-64
2021/10/24 05:59:08;;;;;;;10.02;4.32;;;;;;;-0.01;99.14;101699.66;5027543;28;20403;-63
2021/10/24 06:01:56;;;;;;;9.32;4.05;;;;;;;0.05;99.32;101698.63;5024000;28;20123;-63
2021/10/24 06:04:41;;;;;;;9.57;4.72;;;;;;;0.03;99.13;101703.09;5025789;28;20056;-64
2021/10/24 06:07:27;;;;;;;9.43;3.97;;;;;;;0.09;99.03;101699.41;5024512;28;20052;-63
2021/10/24 06:10:13;;;;;;;12.65;4.38;;;;;;;0.17;98.83;101706.22;5024917;28;20099;-64
2021/10/24 06:12:59;;;;;;;5.95;3.45;;;;;;;0.21;98.98;101705.22;5026912;28;20201;-63
2021/10/24 06:15:45;;;;;;;12.65;4.05;;;;;;;0.29;98.82;101703.22;5025484;28;20388;-62
2021/10/24 06:18:31;;;;;;;6.20;4.45;;;;;;;0.37;98.76;101702.16;5024282;28;20629;-63
2021/10/24 06:21:16;;;;;;;7.88;4.00;;;;;;;0.44;98.77;101703.69;5023618;28;20207;-64
2021/10/24 06:24:01;;;;;;;9.32;4.53;;;;;;;0.52;98.62;101705.22;5025473;28;20068;-65
2021/10/24 06:26:46;;;;;;;10.43;4.90;;;;;;;0.63;98.75;101715.47;5025634;28;20134;-64
2021/10/24 06:29:31;;;;;;;9.43;5.35;;;;;;;0.77;98.96;101710.63;5023614;28;20539;-63
2021/10/24 06:32:16;;;;;;;12.82;6.05;;;;;;;0.91;98.69;101715.50;5022436;28;20522;-62
2021/10/24 06:35:04;;;;;;;9.10;4.72;;;;;;;1.03;98.77;101711.63;5024852;28;20182;-64
2021/10/24 06:37:49;;;;;;;12.80;5.28;;;;;;;1.14;98.57;101715.66;5023035;28;20064;-63
2021/10/24 06:40:35;;;;;;;17.63;7.45;;;;;;;1.25;98.46;101704.72;5024338;28;20131;-64
2021/10/24 06:43:20;;;;;;;12.95;7.07;;;;;;;1.33;98.89;101718.59;5021371;28;21265;-63
2021/10/24 06:46:05;;;;;;;15.02;6.60;;;;;;;1.44;98.70;101712.94;5022929;28;20147;-63
2021/10/24 06:48:50;;;;;;;14.98;7.15;;;;;;;1.55;98.75;101720.53;5023192;28;20514;-61
2021/10/24 06:51:36;;;;;;;18.10;7.10;;;;;;;1.69;98.64;101710.34;5022709;28;20212;-64
2021/10/24 06:54:21;;;;;;;18.67;7.47;;;;;;;1.86;98.89;101709.75;5023707;28;20408;-63
2021/10/24 06:57:06;;;;;;;16.42;7.78;;;;;;;2.02;98.21;101711.84;5025850;28;20059;-64
2021/10/24 06:59:51;;;;;;;13.75;6.97;;;;;;;2.14;98.79;101714.97;5023599;28;20064;-64
2021/10/24 07:02:37;;;;;;;17.02;7.20;;;;;;;2.23;98.68;101711.97;5024221;28;20048;-63
2021/10/24 07:05:23;;;;;;;13.77;7.07;;;;;;;2.27;98.21;101710.97;5024412;28;20746;-64
2021/10/24 07:08:09;;;;;;;15.68;5.93;;;;;;;2.34;97.41;101708.00;5024649;28;20072;-64
2021/10/24 07:10:54;;;;;;;21.80;11.23;;;;;;;2.47;97.70;101707.56;5022781;28;20052;-64
2021/10/24 07:13:39;;;;;;;16.58;7.93;;;;;;;2.58;97.88;101705.38;5023970;28;20053;-65
2021/10/24 07:16:24;;;;;;;17.05;8.13;;;;;;;2.71;97.92;101706.63;5024591;28;20069;-64
2021/10/24 07:19:09;;;;;;;24.73;10.98;;;;;;;2.85;98.15;101708.78;5023755;28;20057;-63
2021/10/24 07:21:54;;;;;;;23.90;8.73;;;;;;;2.96;97.80;101703.03;5023453;28;20053;-64
2021/10/24 07:24:40;;;;;;;22.65;10.32;;;;;;;3.08;97.67;101711.41;5022291;28;20114;-64
2021/10/24 07:27:25;;;;;;;27.85;12.98;;;;;;;3.18;97.30;101702.13;5023740;28;20064;-63
2021/10/24 07:30:11;;;;;;;38.50;15.60;;;;;;;3.27;98.02;101703.56;5024628;28;20056;-64
2021/10/24 07:32:56;;;;;;;33.08;15.85;;;;;;;3.37;96.87;101704.03;5025086;28;20166;-64
2021/10/24 07:35:41;;;;;;;28.50;12.57;;;;;;;3.48;96.92;101707.13;5032130;28;20053;-63
2021/10/24 07:38:26;;;;;;;31.33;15.40;;;;;;;3.63;96.97;101703.81;5020485;28;20056;-62
2021/10/24 07:41:13;;;;;;;35.60;13.85;;;;;;;3.78;96.46;101708.47;5024615;28;20048;-64
2021/10/24 07:43:58;;;;;;;34.58;15.25;;;;;;;3.94;96.68;101707.84;5028570;28;20067;-63
2021/10/24 07:46:43;;;;;;;33.53;16.63;;;;;;;4.09;94.93;101709.81;5027273;28;20064;-63
2021/10/24 07:49:28;;;;;;;37.30;17.10;;;;;;;4.17;94.06;101698.88;5027788;28;20053;-64
2021/10/24 07:52:14;;;;;;;31.00;15.73;;;;;;;4.26;94.78;101699.34;5018732;28;20067;-63
2021/10/24 07:54:59;;;;;;;32.77;15.00;;;;;;;4.34;93.77;101699.81;5021728;28;20064;-63
2021/10/24 07:57:45;;;;;;;26.45;13.48;;;;;;;4.39;93.58;101700.50;5020501;28;20305;-64
2021/10/24 08:00:30;;;;;;;;;;;;;;;4.45;92.69;101699.34;5025968;28;20118;-64
2021/10/24 08:03:15;;;;;;;23.77;13.07;;;;;;;4.55;94.02;101705.13;5026124;28;20365;-62
2021/10/24 08:06:00;;;;;;;26.80;13.25;;;;;;;4.61;93.56;101702.16;5023579;28;20131;-64
2021/10/24 08:08:45;;;;;;;25.38;12.63;;;;;;;4.76;93.66;101703.28;5012773;28;20060;-64
2021/10/24 08:11:31;;;;;;;22.35;11.80;;;;;;;4.93;91.66;101711.31;5030324;28;20056;-64
2021/10/24 08:14:17;;;;;;;18.45;8.43;;;;;;;5.04;92.49;101694.84;5021722;28;20057;-64
2021/10/24 08:17:04;;;;;;;23.52;8.45;;;;;;;5.19;90.58;101697.59;5022798;28;20060;-62
2021/10/24 08:19:49;;;;;;;21.45;9.90;;;;;;;5.33;91.06;101696.97;5026761;28;20075;-64
2021/10/24 08:22:34;;;;;;;25.17;9.30;;;;;;;5.47;92.06;101691.81;5027554;28;20543;-64
2021/10/24 08:25:19;;;;;;;23.48;8.13;;;;;;;5.67;89.95;101697.91;5028555;28;20514;-62
2021/10/24 08:28:05;;;;;;;15.98;7.13;;;;;;;5.83;88.80;101691.75;5024422;28;20114;-66
2021/10/24 08:30:52;;;;;;;13.70;7.72;;;;;;;6.04;89.35;101689.81;5028842;28;20052;-64
2021/10/24 08:33:37;;;;;;;11.95;6.50;;;;;;;6.26;90.69;101688.66;5035555;28;20052;-64
2021/10/24 08:36:23;;;;;;;16.45;5.88;;;;;;;6.48;86.62;101691.91;5027431;28;20539;-65
2021/10/24 08:39:08;;;;;;;12.43;6.25;;;;;;;6.62;87.73;101684.00;5020288;28;20566;-63
2021/10/24 08:41:55;;;;;;;12.68;5.53;;;;;;;6.77;85.66;101684.16;5023690;28;20056;-63
2021/10/24 08:44:40;;;;;;;8.18;4.30;;;;;;;6.91;80.94;101678.91;5023402;28;20052;-64
2021/10/24 08:47:28;;;;;;;10.20;3.70;;;;;;;7.05;81.07;101673.63;5036206;28;20068;-65
2021/10/24 08:50:14;;;;;;;6.75;3.40;;;;;;;7.18;84.03;101669.31;5020511;28;20053;-64
2021/10/24 08:53:01;;;;;;;10.63;4.38;;;;;;;7.30;82.92;101676.63;5013800;28;20523;-63
2021/10/24 08:55:46;;;;;;;7.22;3.92;;;;;;;7.41;78.95;101664.47;5026602;28;20056;-64
2021/10/24 08:58:31;;;;;;;9.82;3.30;;;;;;;7.46;82.15;101660.59;5032883;28;20103;-64
2021/10/24 09:01:18;;;;;;;9.90;3.47;;;;;;;7.57;81.99;101663.47;5029074;28;20049;-64
2021/10/24 09:04:09;;;;;;;11.13;3.33;;;;;;;7.70;77.48;101652.94;5021546;28;20063;-61
2021/10/24 09:06:56;;;;;;;10.63;2.83;;;;;;;7.80;79.02;101656.75;5026657;28;20059;-64
2021/10/24 09:09:41;;;;;;;8.90;2.83;;;;;;;7.96;76.50;101658.53;5032559;28;20519;-65
2021/10/24 09:12:26;;;;;;;8.50;3.03;;;;;;;8.06;79.61;101652.53;5028798;28;20061;-63
2021/10/24 09:15:14;;;;;;;6.13;2.50;;;;;;;8.15;75.58;101649.25;5028921;28;20138;-64
2021/10/24 09:18:18;;;;;;;8.32;2.67;;;;;;;8.28;76.18;101649.38;5021096;28;20376;-64
2021/10/24 09:21:25;;;;;;;5.53;2.55;;;;;;;8.38;75.57;101655.03;5028708;28;20430;-65
2021/10/24 09:24:13;;;;;;;12.35;2.47;;;;;;;8.45;74.45;101651.91;5030236;28;20052;-65
2021/10/24 09:27:00;;;;;;;9.40;2.78;;;;;;;8.48;77.13;101650.84;5024193;28;20172;-64
2021/10/24 09:29:48;;;;;;;5.43;1.90;;;;;;;8.53;71.81;101642.53;5023491;28;20055;-63
2021/10/24 09:32:46;;;;;;;8.00;2.90;;;;;;;8.49;71.62;101648.06;5034692;28;20060;-64
2021/10/24 09:35:33;;;;;;;8.75;2.50;;;;;;;8.61;74.90;101650.91;5020934;28;20192;-64
2021/10/24 09:38:22;;;;;;;6.30;2.28;;;;;;;8.69;74.87;101641.44;5037908;28;20064;-63
2021/10/24 09:41:07;;;;;;;8.50;2.80;;;;;;;8.82;71.33;101644.19;5024265;28;20139;-63
2021/10/24 09:44:10;;;;;;;9.05;2.92;;;;;;;8.78;71.04;101631.97;5019639;28;20052;-65
2021/10/24 09:46:57;;;;;;;7.43;2.95;;;;;;;8.94;72.96;101632.69;5028138;28;20060;-65
2021/10/24 09:49:42;;;;;;;6.72;2.05;;;;;;;9.00;69.57;101624.28;5033048;28;20092;-64
2021/10/24 09:52:28;;;;;;;8.82;2.42;;;;;;;9.03;70.74;101629.41;5034703;28;20056;-64
2021/10/24 09:55:17;;;;;;;8.23;2.42;;;;;;;9.04;69.75;101631.13;5023098;28;20122;-64
2021/10/24 09:58:03;;;;;;;5.95;2.35;;;;;;;9.04;70.29;101630.28;5024611;28;20208;-65
2021/10/24 10:00:48;;;;;;;6.90;2.22;;;;;;;9.01;69.93;101617.97;5021741;28;20055;-64
2021/10/24 10:03:34;;;;;;;8.48;2.65;;;;;;;8.87;69.74;101623.31;5035627;28;20072;-66
2021/10/24 10:06:22;;;;;;;10.45;3.08;;;;;;;8.88;70.58;101621.50;5027125;28;20423;-64
2021/10/24 10:09:07;;;;;;;7.38;2.67;;;;;;;8.95;70.70;101618.34;5020814;28;20056;-63
2021/10/24 10:11:56;;;;;;;7.72;2.85;;;;;;;9.07;70.98;101609.50;5019610;28;20052;-65
2021/10/24 10:14:42;;;;;;;5.88;2.58;;;;;;;9.21;70.54;101613.94;5022123;28;20128;-64
2021/10/24 10:17:28;;;;;;;;;;;;;;;9.25;71.00;101611.94;5025334;28;20065;-63
2021/10/24 10:20:21;;;;;;;8.00;2.63;;;;;;;9.49;70.72;101610.28;5036747;28;20035;-64
2021/10/24 10:23:08;;;;;;;5.60;2.30;;;;;;;9.73;69.59;101605.06;5020379;28;20060;-63
2021/10/24 10:25:53;;;;;;;11.88;2.47;;;;;;;9.70;67.89;101610.63;5020979;28;20052;-63
2021/10/24 10:28:47;;;;;;;6.47;2.03;;;;;;;9.97;67.37;101602.50;5013777;28;20052;-64
2021/10/24 10:31:33;;;;;;;9.15;2.15;;;;;;;10.06;65.79;101599.16;5023050;28;20060;-64
2021/10/24 10:34:18;;;;;;;5.57;1.58;;;;;;;9.91;63.61;101587.69;5016963;28;20159;-65
2021/10/24 10:37:03;;;;;;;5.70;1.73;;;;;;;10.08;62.17;101589.19;5010841;28;20108;-63
2021/10/24 10:39:52;;;;;;;8.68;1.80;;;;;;;10.21;59.62;101587.41;5022254;28;20072;-64
2021/10/24 10:43:02;;;;;;;5.68;1.45;;;;;;;10.20;59.51;101584.78;5023848;28;20055;-64
2021/10/24 10:45:50;;;;;;;6.93;1.80;;;;;;;10.21;59.79;101568.63;5026554;28;20060;-66
2021/10/24 10:48:38;;;;;;;4.40;1.20;;;;;;;10.31;60.82;101579.56;5023028;28;20131;-64
2021/10/24 10:51:24;;;;;;;4.15;1.27;;;;;;;10.57;60.63;101569.59;5024434;28;20224;-64
2021/10/24 10:54:10;;;;;;;5.28;1.65;;;;;;;10.41;59.55;101553.75;5018276;28;20056;-63
2021/10/24 10:56:56;;;;;;;5.20;1.38;;;;;;;10.69;60.79;101555.28;5025502;28;20049;-68
2021/10/24 10:59:41;;;;;;;5.53;2.10;;;;;;;10.82;60.07;101556.09;5014685;28;20072;-66
2021/10/24 11:02:29;;;;;;;5.22;1.77;;;;;;;10.72;58.54;101547.00;5024465;28;20059;-64
2021/10/24 11:05:34;;;;;;;5.00;1.58;;;;;;;10.88;59.23;101546.69;5022257;28;20073;-64
2021/10/24 11:08:47;;;;;;;7.53;1.67;;;;;;;10.83;59.06;101546.19;5010431;28;20052;-64
2021/10/24 11:11:56;;;;;;;6.00;1.15;;;;;;;11.02;59.50;101537.63;5011602;28;20060;-64
2021/10/24 11:14:46;;;;;;;5.45;1.63;;;;;;;10.71;57.30;101529.16;5026382;28;20068;-65
2021/10/24 11:17:41;;;;;;;5.78;1.40;;;;;;;10.77;57.77;101528.72;5025215;28;20179;-65
2021/10/24 11:20:29;;;;;;;3.85;2.00;;;;;;;10.98;57.96;101525.38;5017781;28;20562;-65
2021/10/24 11:23:16;;;;;;;6.90;1.33;;;;;;;10.65;56.18;101509.97;5020539;28;20065;-63
2021/10/24 11:26:02;;;;;;;6.15;1.70;;;;;;;10.74;58.11;101510.13;5015431;28;20565;-64
2021/10/24 11:28:47;;;;;;;5.18;2.05;;;;;;;10.94;58.16;101518.53;5017500;28;20546;-64
2021/10/24 11:31:32;;;;;;;4.32;1.60;;;;;;;10.90;59.23;101511.69;5019972;28;20127;-67
2021/10/24 11:34:32;;;;;;;5.95;2.20;;;;;;;11.10;59.73;101509.19;5021824;28;20127;-64
2021/10/24 11:37:17;;;;;;;8.82;1.90;;;;;;;11.12;59.31;101501.88;5029764;28;20300;-65
2021/10/24 11:40:07;;;;;;;3.97;1.50;;;;;;;11.16;58.76;101502.50;5024292;28;20527;-65
2021/10/24 11:43:07;;;;;;;6.47;1.88;;;;;;;10.83;58.58;101505.91;5020173;28;20385;-63
2021/10/24 11:45:54;;;;;;;5.22;1.70;;;;;;;10.92;58.34;101499.00;5018991;28;21212;-65
2021/10/24 11:48:41;;;;;;;4.45;1.33;;;;;;;11.01;58.18;101493.78;5017834;28;20055;-64
2021/10/24 11:51:28;;;;;;;4.45;1.58;;;;;;;11.15;58.63;101490.06;5028016;28;20120;-64
2021/10/24 11:54:13;;;;;;;7.35;1.75;;;;;;;11.15;58.31;101489.19;5025774;28;20507;-64
2021/10/24 11:57:27;;;;;;;5.32;1.88;;;;;;;11.06;57.07;101480.00;5022781;28;20052;-65
2021/10/24 12:00:21;;;;;;;2.88;1.52;;;;;;;10.92;57.49;101477.50;5027350;28;20056;-64
2021/10/24 12:03:06;;;;;;;3.50;1.58;;;;;;;10.91;57.49;101470.44;5017015;28;20518;-64
2021/10/24 12:05:51;;;;;;;6.47;1.85;;;;;;;10.90;57.80;101464.22;5015091;28;20053;-64
2021/10/24 12:08:51;;;;;;;5.22;1.60;;;;;;;10.66;58.46;101468.75;5023399;28;20156;-62
2021/10/24 12:11:46;;;;;;;5.38;1.95;;;;;;;10.94;60.11;101465.69;5025434;28;20056;-64
2021/10/24 12:14:31;;;;;;;9.02;1.65;;;;;;;10.86;57.20;101451.97;5028183;28;20053;-64
2021/10/24 12:17:17;;;;;;;4.75;1.90;;;;;;;10.90;56.08;101457.97;5019476;28;20131;-64
2021/10/24 12:20:10;;;;;;;;;;;;;;;10.89;55.97;101448.19;5015200;28;20619;-64
2021/10/24 12:22:57;;;;;;;4.57;1.30;;;;;;;10.97;57.75;101443.09;5029302;28;19936;-64
2021/10/24 12:25:46;;;;;;;3.65;1.05;;;;;;;11.00;55.91;101434.78;5029061;28;20060;-64
2021/10/24 12:28:35;;;;;;;4.55;1.40;;;;;;;11.04;55.72;101433.59;5022754;28;20419;-65
2021/10/24 12:31:24;;;;;;;2.15;1.00;;;;;;;11.21;55.67;101433.13;5024778;28;20061;-64
2021/10/24 12:34:14;;;;;;;7.63;1.50;;;;;;;11.25;54.96;101425.72;5024077;28;20064;-64
2021/10/24 12:36:59;;;;;;;5.45;1.25;;;;;;;11.05;54.95;101427.25;5027616;28;20108;-64
2021/10/24 12:39:44;;;;;;;5.00;1.42;;;;;;;11.01;53.90;101423.06;5026721;28;20094;-64
2021/10/24 12:42:32;;;;;;;4.40;1.23;;;;;;;11.04;54.89;101421.03;5025243;28;20115;-66
2021/10/24 12:45:18;;;;;;;6.35;1.67;;;;;;;11.15;55.08;101420.19;5024630;28;20065;-64
2021/10/24 12:48:03;;;;;;;6.68;1.92;;;;;;;10.97;53.42;101417.09;5022780;28;20135;-64
2021/10/24 12:50:49;;;;;;;3.72;1.27;;;;;;;11.05;53.59;101408.44;5024913;28;20267;-67
2021/10/24 12:53:43;;;;;;;4.50;1.13;;;;;;;10.88;53.59;101401.66;5026334;28;20124;-64
2021/10/24 12:56:29;;;;;;;4.32;0.90;;;;;;;10.86;53.51;101400.06;5022097;28;20052;-65
2021/10/24 12:59:16;;;;;;;5.50;1.13;;;;;;;10.89;54.12;101403.38;5022767;28;20254;-64
2021/10/24 13:02:01;;;;;;;2.22;1.27;;;;;;;10.96;54.04;101395.72;5022479;28;20191;-65
2021/10/24 13:04:46;;;;;;;4.03;1.13;;;;;;;10.92;52.92;101392.41;5024695;28;20056;-66
2021/10/24 13:07:32;;;;;;;3.90;1.27;;;;;;;10.94;54.06;101392.28;5025060;28;20133;-64
2021/10/24 13:10:16;;;;;;;3.85;1.27;;;;;;;10.97;54.36;101389.38;5028367;28;20529;-64
2021/10/24 13:13:02;;;;;;;5.18;1.20;;;;;;;10.95;54.32;101385.94;5018693;28;20069;-65